sensor_id;sensor_type;location;lat;lon;timestamp;temperature;humidity
35299;DHT22;21415;48.054;16.646;2022-08-21T00:00:50;25.50;45.30
35299;DHT22;21415;48.054;16.646;2022-08-21T00:03:16;25.60;45.30
35299;DHT22;21415;48.054;16.646;2022-08-21T00:05:47;25.50;45.20
35299;DHT22;21415;48.054;16.646;2022-08-21T00:08:15;25.50;45.20
35299;DHT22;21415;48.054;16.646;2022-08-21T00:10:41;25.50;45.30
35299;DHT22;21415;48.054;16.646;2022-08-21T00:13:07;25.30;45.30
35299;DHT22;21415;48.054;16.646;2022-08-21T00:15:33;25.50;45.40
35299;DHT22;21415;48.054;16.646;2022-08-21T00:17:59;25.50;45.40
35299;DHT22;21415;48.054;16.646;2022-08-21T00:20:26;25.50;45.40
35299;DHT22;21415;48.054;16.646;2022-08-21T00:22:51;25.50;45.50
35299;DHT22;21415;48.054;16.646;2022-08-21T00:25:17;25.50;45.30
35299;DHT22;21415;48.054;16.646;2022-08-21T00:27:43;25.50;45.60
35299;DHT22;21415;48.054;16.646;2022-08-21T00:30:10;25.40;45.30
35299;DHT22;21415;48.054;16.646;2022-08-21T00:32:36;25.40;45.40
35299;DHT22;21415;48.054;16.646;2022-08-21T00:35:04;25.40;45.50
35299;DHT22;21415;48.054;16.646;2022-08-21T00:37:29;25.50;45.50
35299;DHT22;21415;48.054;16.646;2022-08-21T00:39:55;25.40;45.30
35299;DHT22;21415;48.054;16.646;2022-08-21T00:42:21;25.40;45.50
35299;DHT22;21415;48.054;16.646;2022-08-21T00:44:47;25.40;45.40
35299;DHT22;21415;48.054;16.646;2022-08-21T00:47:13;25.40;45.50
35299;DHT22;21415;48.054;16.646;2022-08-21T00:49:39;25.40;45.40
35299;DHT22;21415;48.054;16.646;2022-08-21T00:52:05;25.40;46.00
35299;DHT22;21415;48.054;16.646;2022-08-21T00:54:32;25.30;45.60
35299;DHT22;21415;48.054;16.646;2022-08-21T00:57:00;25.30;45.40
35299;DHT22;21415;48.054;16.646;2022-08-21T00:59:26;25.40;45.80
35299;DHT22;21415;48.054;16.646;2022-08-21T01:01:53;25.30;45.60
35299;DHT22;21415;48.054;16.646;2022-08-21T01:04:19;25.30;45.50
35299;DHT22;21415;48.054;16.646;2022-08-21T01:06:45;25.30;45.50
35299;DHT22;21415;48.054;16.646;2022-08-21T01:09:11;25.30;45.50
35299;DHT22;21415;48.054;16.646;2022-08-21T01:11:37;25.30;45.70
35299;DHT22;21415;48.054;16.646;2022-08-21T01:14:03;25.30;45.40
35299;DHT22;21415;48.054;16.646;2022-08-21T01:16:28;25.30;45.60
35299;DHT22;21415;48.054;16.646;2022-08-21T01:18:54;25.20;46.00
35299;DHT22;21415;48.054;16.646;2022-08-21T01:21:22;25.20;45.50
35299;DHT22;21415;48.054;16.646;2022-08-21T01:23:48;25.20;45.60
35299;DHT22;21415;48.054;16.646;2022-08-21T01:26:15;25.20;45.60
35299;DHT22;21415;48.054;16.646;2022-08-21T01:28:42;25.20;45.70
35299;DHT22;21415;48.054;16.646;2022-08-21T01:31:09;25.10;45.70
35299;DHT22;21415;48.054;16.646;2022-08-21T01:33:36;25.10;45.70
35299;DHT22;21415;48.054;16.646;2022-08-21T01:36:02;25.10;45.90
35299;DHT22;21415;48.054;16.646;2022-08-21T01:38:28;25.10;46.00
35299;DHT22;21415;48.054;16.646;2022-08-21T01:40:54;25.10;45.80
35299;DHT22;21415;48.054;16.646;2022-08-21T01:43:19;25.10;45.90
35299;DHT22;21415;48.054;16.646;2022-08-21T01:45:45;25.00;46.00
35299;DHT22;21415;48.054;16.646;2022-08-21T01:48:11;25.00;45.80
35299;DHT22;21415;48.054;16.646;2022-08-21T01:50:36;24.90;45.80
35299;DHT22;21415;48.054;16.646;2022-08-21T01:53:02;25.00;45.80
35299;DHT22;21415;48.054;16.646;2022-08-21T01:55:28;25.00;45.90
35299;DHT22;21415;48.054;16.646;2022-08-21T01:57:53;25.00;45.80
35299;DHT22;21415;48.054;16.646;2022-08-21T02:00:20;25.00;45.90
35299;DHT22;21415;48.054;16.646;2022-08-21T02:02:48;25.00;45.90
35299;DHT22;21415;48.054;16.646;2022-08-21T02:05:13;25.10;45.90
35299;DHT22;21415;48.054;16.646;2022-08-21T02:07:41;25.00;45.90
35299;DHT22;21415;48.054;16.646;2022-08-21T02:10:08;25.10;46.00
35299;DHT22;21415;48.054;16.646;2022-08-21T02:12:35;25.10;45.90
35299;DHT22;21415;48.054;16.646;2022-08-21T02:15:01;25.10;46.00
35299;DHT22;21415;48.054;16.646;2022-08-21T02:17:26;25.10;46.00
35299;DHT22;21415;48.054;16.646;2022-08-21T02:19:52;25.20;46.20
35299;DHT22;21415;48.054;16.646;2022-08-21T02:22:17;25.20;46.30
35299;DHT22;21415;48.054;16.646;2022-08-21T02:24:43;25.10;46.40
35299;DHT22;21415;48.054;16.646;2022-08-21T02:27:09;25.10;46.20
35299;DHT22;21415;48.054;16.646;2022-08-21T02:29:35;25.20;46.20
35299;DHT22;21415;48.054;16.646;2022-08-21T02:32:00;25.10;46.10
35299;DHT22;21415;48.054;16.646;2022-08-21T02:34:26;25.10;46.10
35299;DHT22;21415;48.054;16.646;2022-08-21T02:36:52;25.10;46.40
35299;DHT22;21415;48.054;16.646;2022-08-21T02:39:17;25.10;46.20
35299;DHT22;21415;48.054;16.646;2022-08-21T02:41:43;25.10;46.30
35299;DHT22;21415;48.054;16.646;2022-08-21T02:44:08;25.10;46.60
35299;DHT22;21415;48.054;16.646;2022-08-21T02:46:34;25.00;46.40
35299;DHT22;21415;48.054;16.646;2022-08-21T02:49:00;25.00;46.50
35299;DHT22;21415;48.054;16.646;2022-08-21T02:51:25;25.00;46.70
35299;DHT22;21415;48.054;16.646;2022-08-21T02:53:51;25.00;46.70
35299;DHT22;21415;48.054;16.646;2022-08-21T02:56:17;25.00;46.70
35299;DHT22;21415;48.054;16.646;2022-08-21T02:58:46;25.00;46.70
35299;DHT22;21415;48.054;16.646;2022-08-21T03:01:12;25.00;47.10
35299;DHT22;21415;48.054;16.646;2022-08-21T03:03:40;25.00;46.80
35299;DHT22;21415;48.054;16.646;2022-08-21T03:06:07;25.00;46.70
35299;DHT22;21415;48.054;16.646;2022-08-21T03:08:33;24.90;46.80
35299;DHT22;21415;48.054;16.646;2022-08-21T03:11:02;24.90;46.70
35299;DHT22;21415;48.054;16.646;2022-08-21T03:13:28;24.90;46.80
35299;DHT22;21415;48.054;16.646;2022-08-21T03:15:54;24.90;46.90
35299;DHT22;21415;48.054;16.646;2022-08-21T03:18:20;24.90;47.00
35299;DHT22;21415;48.054;16.646;2022-08-21T03:20:46;24.90;47.00
35299;DHT22;21415;48.054;16.646;2022-08-21T03:23:12;24.90;47.10
35299;DHT22;21415;48.054;16.646;2022-08-21T03:25:38;24.90;47.00
35299;DHT22;21415;48.054;16.646;2022-08-21T03:28:05;24.80;47.30
35299;DHT22;21415;48.054;16.646;2022-08-21T03:30:31;24.80;47.00
35299;DHT22;21415;48.054;16.646;2022-08-21T03:32:58;24.80;47.00
35299;DHT22;21415;48.054;16.646;2022-08-21T03:35:24;24.90;47.00
35299;DHT22;21415;48.054;16.646;2022-08-21T03:37:50;24.90;47.20
35299;DHT22;21415;48.054;16.646;2022-08-21T03:40:16;24.90;47.00
35299;DHT22;21415;48.054;16.646;2022-08-21T03:42:42;24.80;47.20
35299;DHT22;21415;48.054;16.646;2022-08-21T03:45:09;24.90;47.00
35299;DHT22;21415;48.054;16.646;2022-08-21T03:47:35;24.90;47.20
35299;DHT22;21415;48.054;16.646;2022-08-21T03:50:01;24.90;47.00
35299;DHT22;21415;48.054;16.646;2022-08-21T03:52:27;24.90;47.00
35299;DHT22;21415;48.054;16.646;2022-08-21T03:54:53;24.90;47.10
35299;DHT22;21415;48.054;16.646;2022-08-21T03:57:19;24.90;47.00
35299;DHT22;21415;48.054;16.646;2022-08-21T03:59:45;24.90;47.00
35299;DHT22;21415;48.054;16.646;2022-08-21T04:02:11;24.90;47.20
35299;DHT22;21415;48.054;16.646;2022-08-21T04:04:39;24.90;47.30
35299;DHT22;21415;48.054;16.646;2022-08-21T04:07:04;24.90;47.00
35299;DHT22;21415;48.054;16.646;2022-08-21T04:09:30;24.90;47.10
35299;DHT22;21415;48.054;16.646;2022-08-21T04:11:56;24.90;47.10
35299;DHT22;21415;48.054;16.646;2022-08-21T04:14:22;24.90;47.20
35299;DHT22;21415;48.054;16.646;2022-08-21T04:16:48;24.90;47.00
35299;DHT22;21415;48.054;16.646;2022-08-21T04:19:13;25.00;47.10
35299;DHT22;21415;48.054;16.646;2022-08-21T04:21:39;24.90;47.00
35299;DHT22;21415;48.054;16.646;2022-08-21T04:24:05;24.90;47.00
35299;DHT22;21415;48.054;16.646;2022-08-21T04:26:33;24.90;46.90
35299;DHT22;21415;48.054;16.646;2022-08-21T04:29:00;24.90;47.00
35299;DHT22;21415;48.054;16.646;2022-08-21T04:31:26;25.00;47.00
35299;DHT22;21415;48.054;16.646;2022-08-21T04:33:51;25.00;47.10
35299;DHT22;21415;48.054;16.646;2022-08-21T04:36:17;25.00;47.60
35299;DHT22;21415;48.054;16.646;2022-08-21T04:38:43;25.00;47.10
35299;DHT22;21415;48.054;16.646;2022-08-21T04:41:09;25.10;47.10
35299;DHT22;21415;48.054;16.646;2022-08-21T04:43:34;25.10;47.10
35299;DHT22;21415;48.054;16.646;2022-08-21T04:46:00;25.20;47.00
35299;DHT22;21415;48.054;16.646;2022-08-21T04:48:26;25.20;46.90
35299;DHT22;21415;48.054;16.646;2022-08-21T04:50:56;25.20;47.00
35299;DHT22;21415;48.054;16.646;2022-08-21T04:55:48;25.30;47.00
35299;DHT22;21415;48.054;16.646;2022-08-21T04:58:16;25.00;46.60
35299;DHT22;21415;48.054;16.646;2022-08-21T05:00:43;25.30;46.90
35299;DHT22;21415;48.054;16.646;2022-08-21T05:03:09;25.30;47.00
35299;DHT22;21415;48.054;16.646;2022-08-21T05:05:35;25.40;47.10
35299;DHT22;21415;48.054;16.646;2022-08-21T05:08:01;25.40;47.00
35299;DHT22;21415;48.054;16.646;2022-08-21T05:10:27;25.50;47.30
35299;DHT22;21415;48.054;16.646;2022-08-21T05:12:54;25.60;46.90
35299;DHT22;21415;48.054;16.646;2022-08-21T05:15:20;25.60;47.10
35299;DHT22;21415;48.054;16.646;2022-08-21T05:17:46;25.70;47.20
35299;DHT22;21415;48.054;16.646;2022-08-21T05:20:12;25.80;47.10
35299;DHT22;21415;48.054;16.646;2022-08-21T05:22:38;25.80;47.30
35299;DHT22;21415;48.054;16.646;2022-08-21T05:25:05;25.90;47.30
35299;DHT22;21415;48.054;16.646;2022-08-21T05:27:31;26.00;47.30
35299;DHT22;21415;48.054;16.646;2022-08-21T05:29:57;26.00;47.30
35299;DHT22;21415;48.054;16.646;2022-08-21T05:32:22;26.10;47.20
35299;DHT22;21415;48.054;16.646;2022-08-21T05:34:48;26.20;47.20
35299;DHT22;21415;48.054;16.646;2022-08-21T05:37:14;26.30;47.10
35299;DHT22;21415;48.054;16.646;2022-08-21T05:39:40;26.40;47.10
35299;DHT22;21415;48.054;16.646;2022-08-21T05:42:05;26.50;47.10
35299;DHT22;21415;48.054;16.646;2022-08-21T05:44:31;26.50;47.00
35299;DHT22;21415;48.054;16.646;2022-08-21T05:47:07;26.60;46.80
35299;DHT22;21415;48.054;16.646;2022-08-21T05:49:33;26.60;46.80
35299;DHT22;21415;48.054;16.646;2022-08-21T05:51:59;26.70;46.80
35299;DHT22;21415;48.054;16.646;2022-08-21T05:54:25;26.70;46.70
35299;DHT22;21415;48.054;16.646;2022-08-21T05:56:51;26.70;46.60
35299;DHT22;21415;48.054;16.646;2022-08-21T05:59:17;26.70;46.60
35299;DHT22;21415;48.054;16.646;2022-08-21T06:01:43;26.80;46.70
35299;DHT22;21415;48.054;16.646;2022-08-21T06:04:10;26.90;46.80
35299;DHT22;21415;48.054;16.646;2022-08-21T06:06:36;26.90;46.90
35299;DHT22;21415;48.054;16.646;2022-08-21T06:09:03;27.00;46.90
35299;DHT22;21415;48.054;16.646;2022-08-21T06:11:29;27.10;46.90
35299;DHT22;21415;48.054;16.646;2022-08-21T06:13:54;27.20;46.80
35299;DHT22;21415;48.054;16.646;2022-08-21T06:16:20;27.30;46.70
35299;DHT22;21415;48.054;16.646;2022-08-21T06:18:47;27.40;46.60
35299;DHT22;21415;48.054;16.646;2022-08-21T06:21:12;27.40;46.60
35299;DHT22;21415;48.054;16.646;2022-08-21T06:23:39;27.50;46.50
35299;DHT22;21415;48.054;16.646;2022-08-21T06:26:05;27.50;46.40
35299;DHT22;21415;48.054;16.646;2022-08-21T06:28:32;27.50;46.30
35299;DHT22;21415;48.054;16.646;2022-08-21T06:30:57;27.60;46.30
35299;DHT22;21415;48.054;16.646;2022-08-21T06:33:23;27.60;46.20
35299;DHT22;21415;48.054;16.646;2022-08-21T06:35:49;27.60;46.00
35299;DHT22;21415;48.054;16.646;2022-08-21T06:38:14;27.60;45.90
35299;DHT22;21415;48.054;16.646;2022-08-21T06:40:40;27.60;45.90
35299;DHT22;21415;48.054;16.646;2022-08-21T06:43:11;27.60;46.00
35299;DHT22;21415;48.054;16.646;2022-08-21T06:45:36;27.60;45.90
35299;DHT22;21415;48.054;16.646;2022-08-21T06:48:02;27.60;46.00
35299;DHT22;21415;48.054;16.646;2022-08-21T06:50:28;27.70;46.00
35299;DHT22;21415;48.054;16.646;2022-08-21T06:53:04;27.60;46.00
35299;DHT22;21415;48.054;16.646;2022-08-21T06:55:31;27.60;46.10
35299;DHT22;21415;48.054;16.646;2022-08-21T06:57:57;27.70;46.20
35299;DHT22;21415;48.054;16.646;2022-08-21T07:00:23;27.70;46.20
35299;DHT22;21415;48.054;16.646;2022-08-21T07:02:48;27.70;46.10
35299;DHT22;21415;48.054;16.646;2022-08-21T07:05:14;27.70;46.00
35299;DHT22;21415;48.054;16.646;2022-08-21T07:07:40;27.80;46.00
35299;DHT22;21415;48.054;16.646;2022-08-21T07:10:06;27.80;45.90
35299;DHT22;21415;48.054;16.646;2022-08-21T07:12:31;27.80;45.80
35299;DHT22;21415;48.054;16.646;2022-08-21T07:14:57;27.80;45.70
35299;DHT22;21415;48.054;16.646;2022-08-21T07:17:23;27.80;45.70
35299;DHT22;21415;48.054;16.646;2022-08-21T07:19:49;27.90;45.70
35299;DHT22;21415;48.054;16.646;2022-08-21T07:22:18;27.90;45.70
35299;DHT22;21415;48.054;16.646;2022-08-21T07:24:44;27.80;45.60
35299;DHT22;21415;48.054;16.646;2022-08-21T07:27:10;27.80;45.60
35299;DHT22;21415;48.054;16.646;2022-08-21T07:29:36;27.80;45.60
35299;DHT22;21415;48.054;16.646;2022-08-21T07:32:02;27.80;45.60
35299;DHT22;21415;48.054;16.646;2022-08-21T07:34:27;27.80;45.60
35299;DHT22;21415;48.054;16.646;2022-08-21T07:36:53;27.80;45.60
35299;DHT22;21415;48.054;16.646;2022-08-21T07:39:19;27.80;45.50
35299;DHT22;21415;48.054;16.646;2022-08-21T07:41:44;27.80;45.60
35299;DHT22;21415;48.054;16.646;2022-08-21T07:44:10;27.70;45.60
35299;DHT22;21415;48.054;16.646;2022-08-21T07:46:36;27.70;45.70
35299;DHT22;21415;48.054;16.646;2022-08-21T07:49:01;27.80;45.80
35299;DHT22;21415;48.054;16.646;2022-08-21T07:51:27;27.80;45.80
35299;DHT22;21415;48.054;16.646;2022-08-21T07:53:54;27.80;45.90
35299;DHT22;21415;48.054;16.646;2022-08-21T07:56:20;27.80;45.90
35299;DHT22;21415;48.054;16.646;2022-08-21T07:58:46;27.90;45.90
35299;DHT22;21415;48.054;16.646;2022-08-21T08:01:12;27.90;45.80
35299;DHT22;21415;48.054;16.646;2022-08-21T08:03:39;27.90;45.70
35299;DHT22;21415;48.054;16.646;2022-08-21T08:06:05;28.00;45.80
35299;DHT22;21415;48.054;16.646;2022-08-21T08:08:31;28.00;45.80
35299;DHT22;21415;48.054;16.646;2022-08-21T08:10:57;28.10;45.90
35299;DHT22;21415;48.054;16.646;2022-08-21T08:13:23;28.10;45.80
35299;DHT22;21415;48.054;16.646;2022-08-21T08:15:49;28.20;45.80
35299;DHT22;21415;48.054;16.646;2022-08-21T08:18:15;28.20;45.60
35299;DHT22;21415;48.054;16.646;2022-08-21T08:20:40;28.20;45.70
35299;DHT22;21415;48.054;16.646;2022-08-21T08:23:07;28.20;45.60
35299;DHT22;21415;48.054;16.646;2022-08-21T08:25:32;28.30;45.70
35299;DHT22;21415;48.054;16.646;2022-08-21T08:27:58;28.30;45.60
35299;DHT22;21415;48.054;16.646;2022-08-21T08:30:24;28.40;45.50
35299;DHT22;21415;48.054;16.646;2022-08-21T08:32:49;28.40;45.40
35299;DHT22;21415;48.054;16.646;2022-08-21T08:35:15;28.40;45.40
35299;DHT22;21415;48.054;16.646;2022-08-21T08:37:41;28.30;45.20
35299;DHT22;21415;48.054;16.646;2022-08-21T08:40:14;28.30;45.30
35299;DHT22;21415;48.054;16.646;2022-08-21T08:42:43;28.30;45.30
35299;DHT22;21415;48.054;16.646;2022-08-21T08:45:10;28.20;45.80
35299;DHT22;21415;48.054;16.646;2022-08-21T08:47:40;28.20;45.30
35299;DHT22;21415;48.054;16.646;2022-08-21T08:50:09;28.20;45.30
35299;DHT22;21415;48.054;16.646;2022-08-21T08:52:37;28.10;45.30
35299;DHT22;21415;48.054;16.646;2022-08-21T08:57:42;28.00;45.30
35299;DHT22;21415;48.054;16.646;2022-08-21T09:00:10;27.90;45.40
35299;DHT22;21415;48.054;16.646;2022-08-21T09:02:37;27.90;45.50
35299;DHT22;21415;48.054;16.646;2022-08-21T09:05:04;27.80;45.50
35299;DHT22;21415;48.054;16.646;2022-08-21T09:07:46;27.80;45.70
35299;DHT22;21415;48.054;16.646;2022-08-21T09:10:20;27.80;45.70
35299;DHT22;21415;48.054;16.646;2022-08-21T09:12:52;27.80;45.90
35299;DHT22;21415;48.054;16.646;2022-08-21T09:15:43;27.80;46.10
35299;DHT22;21415;48.054;16.646;2022-08-21T09:20:40;27.80;46.20
35299;DHT22;21415;48.054;16.646;2022-08-21T09:26:15;27.80;46.20
35299;DHT22;21415;48.054;16.646;2022-08-21T09:28:39;27.80;46.20
35299;DHT22;21415;48.054;16.646;2022-08-21T09:31:07;27.80;46.40
35299;DHT22;21415;48.054;16.646;2022-08-21T09:33:33;27.80;46.50
35299;DHT22;21415;48.054;16.646;2022-08-21T09:35:59;27.80;46.40
35299;DHT22;21415;48.054;16.646;2022-08-21T09:38:27;27.90;46.40
35299;DHT22;21415;48.054;16.646;2022-08-21T09:40:58;27.90;46.30
35299;DHT22;21415;48.054;16.646;2022-08-21T09:43:24;27.90;46.30
35299;DHT22;21415;48.054;16.646;2022-08-21T09:46:06;27.90;46.20
35299;DHT22;21415;48.054;16.646;2022-08-21T09:48:43;27.90;47.00
35299;DHT22;21415;48.054;16.646;2022-08-21T09:51:12;27.90;46.70
35299;DHT22;21415;48.054;16.646;2022-08-21T09:53:39;27.80;46.80
35299;DHT22;21415;48.054;16.646;2022-08-21T10:02:16;27.90;47.00
35299;DHT22;21415;48.054;16.646;2022-08-21T10:04:49;27.90;47.00
35299;DHT22;21415;48.054;16.646;2022-08-21T10:07:15;28.00;47.10
35299;DHT22;21415;48.054;16.646;2022-08-21T10:09:41;28.20;47.10
35299;DHT22;21415;48.054;16.646;2022-08-21T10:12:15;28.10;46.80
35299;DHT22;21415;48.054;16.646;2022-08-21T10:17:27;28.20;46.50
35299;DHT22;21415;48.054;16.646;2022-08-21T10:20:00;28.30;46.40
35299;DHT22;21415;48.054;16.646;2022-08-21T10:30:15;28.20;46.00
35299;DHT22;21415;48.054;16.646;2022-08-21T10:35:18;28.20;46.10
35299;DHT22;21415;48.054;16.646;2022-08-21T10:40:40;28.10;46.00
35299;DHT22;21415;48.054;16.646;2022-08-21T10:46:32;28.10;45.90
35299;DHT22;21415;48.054;16.646;2022-08-21T10:51:09;28.00;45.90
35299;DHT22;21415;48.054;16.646;2022-08-21T10:53:38;28.00;46.00
35299;DHT22;21415;48.054;16.646;2022-08-21T10:58:34;27.90;46.00
35299;DHT22;21415;48.054;16.646;2022-08-21T11:06:31;27.90;46.10
35299;DHT22;21415;48.054;16.646;2022-08-21T11:08:59;27.90;46.20
35299;DHT22;21415;48.054;16.646;2022-08-21T11:11:30;27.90;46.20
35299;DHT22;21415;48.054;16.646;2022-08-21T11:13:58;27.80;46.20
35299;DHT22;21415;48.054;16.646;2022-08-21T11:19:02;27.90;46.40
35299;DHT22;21415;48.054;16.646;2022-08-21T11:21:42;27.80;46.30
35299;DHT22;21415;48.054;16.646;2022-08-21T11:29:38;27.80;46.40
35299;DHT22;21415;48.054;16.646;2022-08-21T11:37:18;27.70;46.80
35299;DHT22;21415;48.054;16.646;2022-08-21T11:50:29;27.90;46.70
35299;DHT22;21415;48.054;16.646;2022-08-21T11:53:01;28.00;46.50
35299;DHT22;21415;48.054;16.646;2022-08-21T11:55:32;28.00;46.30
35299;DHT22;21415;48.054;16.646;2022-08-21T12:06:04;28.00;45.80
35299;DHT22;21415;48.054;16.646;2022-08-21T12:08:32;28.00;45.80
35299;DHT22;21415;48.054;16.646;2022-08-21T12:11:08;28.00;45.90
35299;DHT22;21415;48.054;16.646;2022-08-21T12:13:36;28.00;46.00
35299;DHT22;21415;48.054;16.646;2022-08-21T12:16:13;28.00;45.90
35299;DHT22;21415;48.054;16.646;2022-08-21T12:18:39;27.90;45.80
35299;DHT22;21415;48.054;16.646;2022-08-21T12:26:26;27.90;45.60
35299;DHT22;21415;48.054;16.646;2022-08-21T12:29:03;27.90;45.70
35299;DHT22;21415;48.054;16.646;2022-08-21T12:31:29;27.90;45.70
35299;DHT22;21415;48.054;16.646;2022-08-21T12:33:56;27.80;45.60
35299;DHT22;21415;48.054;16.646;2022-08-21T12:36:44;27.80;45.70
35299;DHT22;21415;48.054;16.646;2022-08-21T12:39:14;27.80;45.80
35299;DHT22;21415;48.054;16.646;2022-08-21T12:41:47;27.80;45.80
35299;DHT22;21415;48.054;16.646;2022-08-21T12:44:15;27.80;45.80
35299;DHT22;21415;48.054;16.646;2022-08-21T12:46:50;27.80;45.80
35299;DHT22;21415;48.054;16.646;2022-08-21T12:49:18;27.80;45.80
35299;DHT22;21415;48.054;16.646;2022-08-21T12:52:00;27.80;45.60
35299;DHT22;21415;48.054;16.646;2022-08-21T12:54:28;27.80;45.60
35299;DHT22;21415;48.054;16.646;2022-08-21T12:56:58;27.80;45.70
35299;DHT22;21415;48.054;16.646;2022-08-21T12:59:24;27.70;45.70
35299;DHT22;21415;48.054;16.646;2022-08-21T13:01:50;27.80;45.80
35299;DHT22;21415;48.054;16.646;2022-08-21T13:04:17;27.80;45.80
35299;DHT22;21415;48.054;16.646;2022-08-21T13:06:46;27.80;45.80
35299;DHT22;21415;48.054;16.646;2022-08-21T13:09:12;27.70;45.80
35299;DHT22;21415;48.054;16.646;2022-08-21T13:11:40;27.70;45.70
35299;DHT22;21415;48.054;16.646;2022-08-21T13:14:06;27.70;45.60
35299;DHT22;21415;48.054;16.646;2022-08-21T13:16:35;27.70;45.60
35299;DHT22;21415;48.054;16.646;2022-08-21T13:19:02;27.60;45.60
35299;DHT22;21415;48.054;16.646;2022-08-21T13:21:50;27.70;45.70
35299;DHT22;21415;48.054;16.646;2022-08-21T13:24:19;27.60;45.70
35299;DHT22;21415;48.054;16.646;2022-08-21T13:26:46;27.50;45.60
35299;DHT22;21415;48.054;16.646;2022-08-21T13:29:13;27.50;45.60
35299;DHT22;21415;48.054;16.646;2022-08-21T13:31:41;27.50;45.60
35299;DHT22;21415;48.054;16.646;2022-08-21T13:34:08;27.50;45.70
35299;DHT22;21415;48.054;16.646;2022-08-21T13:36:37;27.40;45.70
35299;DHT22;21415;48.054;16.646;2022-08-21T13:39:03;27.40;45.70
35299;DHT22;21415;48.054;16.646;2022-08-21T13:41:32;27.40;46.00
35299;DHT22;21415;48.054;16.646;2022-08-21T13:46:28;27.30;45.90
35299;DHT22;21415;48.054;16.646;2022-08-21T13:48:54;27.30;46.00
35299;DHT22;21415;48.054;16.646;2022-08-21T13:51:21;27.30;46.00
35299;DHT22;21415;48.054;16.646;2022-08-21T13:53:48;27.30;45.90
35299;DHT22;21415;48.054;16.646;2022-08-21T13:56:40;27.30;45.90
35299;DHT22;21415;48.054;16.646;2022-08-21T13:59:06;27.30;45.90
35299;DHT22;21415;48.054;16.646;2022-08-21T14:01:39;27.30;45.80
35299;DHT22;21415;48.054;16.646;2022-08-21T14:04:18;27.30;45.90
35299;DHT22;21415;48.054;16.646;2022-08-21T14:06:45;27.20;45.80
35299;DHT22;21415;48.054;16.646;2022-08-21T14:09:31;27.20;45.80
35299;DHT22;21415;48.054;16.646;2022-08-21T14:11:58;27.20;45.80
35299;DHT22;21415;48.054;16.646;2022-08-21T14:14:26;27.10;45.80
35299;DHT22;21415;48.054;16.646;2022-08-21T14:16:55;27.10;45.80
35299;DHT22;21415;48.054;16.646;2022-08-21T14:19:24;27.10;45.80
35299;DHT22;21415;48.054;16.646;2022-08-21T14:21:50;27.10;45.90
35299;DHT22;21415;48.054;16.646;2022-08-21T14:26:49;27.00;45.90
35299;DHT22;21415;48.054;16.646;2022-08-21T14:29:15;27.00;46.00
35299;DHT22;21415;48.054;16.646;2022-08-21T14:31:41;27.00;45.90
35299;DHT22;21415;48.054;16.646;2022-08-21T14:34:10;27.00;45.90
35299;DHT22;21415;48.054;16.646;2022-08-21T14:36:35;26.90;45.90
35299;DHT22;21415;48.054;16.646;2022-08-21T14:39:01;26.90;45.80
35299;DHT22;21415;48.054;16.646;2022-08-21T14:41:38;26.90;46.00
35299;DHT22;21415;48.054;16.646;2022-08-21T14:44:04;26.80;45.80
35299;DHT22;21415;48.054;16.646;2022-08-21T14:46:31;26.80;45.80
35299;DHT22;21415;48.054;16.646;2022-08-21T14:48:57;26.80;45.90
35299;DHT22;21415;48.054;16.646;2022-08-21T14:51:23;26.80;45.90
35299;DHT22;21415;48.054;16.646;2022-08-21T14:53:49;26.80;45.80
35299;DHT22;21415;48.054;16.646;2022-08-21T14:56:14;26.80;45.80
35299;DHT22;21415;48.054;16.646;2022-08-21T14:58:41;26.80;46.00
35299;DHT22;21415;48.054;16.646;2022-08-21T15:01:08;26.70;45.90
35299;DHT22;21415;48.054;16.646;2022-08-21T15:03:34;26.70;45.90
35299;DHT22;21415;48.054;16.646;2022-08-21T15:06:00;26.70;46.10
35299;DHT22;21415;48.054;16.646;2022-08-21T15:08:26;26.70;45.90
35299;DHT22;21415;48.054;16.646;2022-08-21T15:10:52;26.70;46.00
35299;DHT22;21415;48.054;16.646;2022-08-21T15:13:18;26.70;46.10
35299;DHT22;21415;48.054;16.646;2022-08-21T15:15:45;26.60;45.90
35299;DHT22;21415;48.054;16.646;2022-08-21T15:18:11;26.60;46.40
35299;DHT22;21415;48.054;16.646;2022-08-21T15:20:37;26.60;46.00
35299;DHT22;21415;48.054;16.646;2022-08-21T15:23:04;26.60;45.90
35299;DHT22;21415;48.054;16.646;2022-08-21T15:25:29;26.60;45.90
35299;DHT22;21415;48.054;16.646;2022-08-21T15:27:55;26.60;45.80
35299;DHT22;21415;48.054;16.646;2022-08-21T15:30:21;26.60;45.70
35299;DHT22;21415;48.054;16.646;2022-08-21T15:32:47;26.50;45.70
35299;DHT22;21415;48.054;16.646;2022-08-21T15:35:13;26.50;45.60
35299;DHT22;21415;48.054;16.646;2022-08-21T15:37:38;26.50;45.60
35299;DHT22;21415;48.054;16.646;2022-08-21T15:40:04;26.60;45.60
35299;DHT22;21415;48.054;16.646;2022-08-21T15:42:32;26.50;45.50
35299;DHT22;21415;48.054;16.646;2022-08-21T15:44:58;26.50;45.50
35299;DHT22;21415;48.054;16.646;2022-08-21T15:47:28;26.50;45.40
35299;DHT22;21415;48.054;16.646;2022-08-21T15:49:54;26.50;45.40
35299;DHT22;21415;48.054;16.646;2022-08-21T15:52:20;26.50;45.30
35299;DHT22;21415;48.054;16.646;2022-08-21T15:54:46;26.50;45.30
35299;DHT22;21415;48.054;16.646;2022-08-21T15:57:14;26.50;45.30
35299;DHT22;21415;48.054;16.646;2022-08-21T15:59:45;26.50;45.30
35299;DHT22;21415;48.054;16.646;2022-08-21T16:02:16;26.50;45.30
35299;DHT22;21415;48.054;16.646;2022-08-21T16:04:43;26.40;45.30
35299;DHT22;21415;48.054;16.646;2022-08-21T16:07:08;26.40;45.20
35299;DHT22;21415;48.054;16.646;2022-08-21T16:09:34;26.40;45.30
35299;DHT22;21415;48.054;16.646;2022-08-21T16:12:00;26.40;45.20
35299;DHT22;21415;48.054;16.646;2022-08-21T16:14:26;26.30;45.20
35299;DHT22;21415;48.054;16.646;2022-08-21T16:16:53;26.30;45.30
35299;DHT22;21415;48.054;16.646;2022-08-21T16:19:19;26.30;45.30
35299;DHT22;21415;48.054;16.646;2022-08-21T16:21:46;26.40;45.30
35299;DHT22;21415;48.054;16.646;2022-08-21T16:24:12;26.40;45.30
35299;DHT22;21415;48.054;16.646;2022-08-21T16:26:37;26.40;45.30
35299;DHT22;21415;48.054;16.646;2022-08-21T16:29:03;26.40;45.30
35299;DHT22;21415;48.054;16.646;2022-08-21T16:31:29;26.40;45.30
35299;DHT22;21415;48.054;16.646;2022-08-21T16:33:56;26.40;45.30
35299;DHT22;21415;48.054;16.646;2022-08-21T16:36:21;26.40;45.30
35299;DHT22;21415;48.054;16.646;2022-08-21T16:38:47;26.30;45.30
35299;DHT22;21415;48.054;16.646;2022-08-21T16:41:14;26.30;45.40
35299;DHT22;21415;48.054;16.646;2022-08-21T16:43:40;26.30;45.50